createdAt,value
2023-04-21T00:00:34.432Z,96.67
2023-04-21T00:01:34.416Z,96.50
2023-04-21T00:02:35.868Z,96.88
2023-04-21T00:03:34.748Z,96.71
2023-04-21T00:04:34.531Z,96.50
2023-04-21T00:05:34.470Z,96.71
2023-04-21T00:06:34.407Z,96.61
2023-04-21T00:07:34.350Z,96.71
2023-04-21T00:08:34.358Z,96.71
2023-04-21T00:09:34.327Z,96.61
2023-04-21T00:10:39.335Z,96.71
2023-04-21T00:11:34.307Z,96.71
2023-04-21T00:12:34.289Z,96.71
2023-04-21T00:13:34.300Z,97.02
2023-04-21T00:14:34.275Z,96.81
2023-04-21T00:15:34.262Z,97.02
2023-04-21T00:16:34.373Z,96.92
2023-04-21T00:17:34.271Z,96.92
2023-04-21T00:18:34.237Z,96.71
2023-04-21T00:19:34.218Z,96.71
2023-04-21T00:20:34.218Z,96.71
2023-04-21T00:21:39.244Z,96.75
2023-04-21T00:22:34.178Z,96.61
2023-04-21T00:23:34.176Z,96.75
2023-04-21T00:24:34.154Z,96.71
2023-04-21T00:25:34.144Z,96.96
2023-04-21T00:26:34.144Z,96.66
2023-04-21T00:27:34.122Z,96.86
2023-04-21T00:28:34.119Z,96.81
2023-04-21T00:29:34.096Z,96.66
2023-04-21T00:30:34.087Z,96.86
2023-04-21T00:31:34.125Z,97.06
2023-04-21T00:32:39.144Z,96.86
2023-04-21T00:33:34.072Z,97.06
2023-04-21T00:34:34.044Z,96.75
2023-04-21T00:35:34.034Z,96.91
2023-04-21T00:36:34.019Z,97.52
2023-04-21T00:37:34.031Z,97.68
2023-04-21T00:38:34.023Z,97.99
2023-04-21T00:39:33.985Z,97.78
2023-04-21T00:40:33.997Z,97.89
2023-04-21T00:41:33.965Z,97.78
2023-04-21T00:42:33.957Z,97.89
2023-04-21T00:43:38.983Z,97.48
2023-04-21T00:44:33.939Z,97.48
2023-04-21T00:45:33.940Z,97.78
2023-04-21T00:46:33.942Z,97.68
2023-04-21T00:47:33.943Z,97.78
2023-04-21T00:48:33.884Z,97.78
2023-04-21T00:49:33.879Z,97.68
2023-04-21T00:50:33.864Z,98.10
2023-04-21T00:51:33.851Z,97.68
2023-04-21T00:52:33.850Z,97.68
2023-04-21T00:53:33.853Z,97.42
2023-04-21T00:54:38.868Z,97.68
2023-04-21T00:55:33.805Z,97.78
2023-04-21T00:56:33.808Z,97.99
2023-04-21T00:57:33.806Z,97.83
2023-04-21T00:58:33.784Z,97.73
2023-04-21T00:59:33.759Z,97.78
2023-04-21T01:00:33.871Z,97.68
2023-04-21T01:01:33.738Z,97.73
2023-04-21T01:02:33.932Z,97.68
2023-04-21T01:03:33.909Z,97.73
2023-04-21T01:04:33.707Z,97.78
2023-04-21T01:05:38.754Z,97.89
2023-04-21T01:06:33.680Z,97.48
2023-04-21T01:07:33.684Z,97.17
2023-04-21T01:08:33.663Z,97.27
2023-04-21T01:09:33.671Z,96.96
2023-04-21T01:10:33.660Z,97.06
2023-04-21T01:11:33.640Z,97.06
2023-04-21T01:12:33.631Z,97.06
2023-04-21T01:13:33.605Z,96.96
2023-04-21T01:14:33.592Z,97.17
2023-04-21T01:15:33.585Z,96.86
2023-04-21T01:16:38.639Z,97.06
2023-04-21T01:17:33.594Z,97.17
2023-04-21T01:18:33.550Z,96.96
2023-04-21T01:19:33.536Z,97.06
2023-04-21T01:20:33.527Z,96.91
2023-04-21T01:21:33.516Z,96.96
2023-04-21T01:22:33.504Z,96.96
2023-04-21T01:23:33.526Z,96.96
2023-04-21T01:24:33.488Z,96.86
2023-04-21T01:25:33.501Z,97.06
2023-04-21T01:26:33.466Z,97.11
2023-04-21T01:27:38.491Z,97.11
2023-04-21T01:28:33.449Z,97.11
2023-04-21T01:29:33.433Z,97.01
2023-04-21T01:30:33.413Z,97.11
2023-04-21T01:31:33.434Z,96.86
2023-04-21T01:32:33.442Z,97.11
2023-04-21T01:33:33.383Z,97.11
2023-04-21T01:34:33.366Z,97.11
2023-04-21T01:35:33.369Z,97.11
2023-04-21T01:36:33.381Z,97.01
2023-04-21T01:37:33.342Z,97.11
2023-04-21T01:38:38.358Z,97.21
2023-04-21T01:39:33.317Z,97.11
2023-04-21T01:40:33.310Z,97.01
2023-04-21T01:41:33.315Z,97.52
2023-04-21T01:42:33.299Z,98.03
2023-04-21T01:43:33.306Z,97.63
2023-04-21T01:44:33.260Z,97.83
2023-04-21T01:45:33.250Z,97.73
2023-04-21T01:46:33.345Z,97.73
2023-04-21T01:47:33.262Z,97.73
2023-04-21T01:48:33.225Z,97.52
2023-04-21T01:49:38.228Z,97.63
2023-04-21T01:50:33.194Z,97.31
2023-04-21T01:51:33.188Z,97.58
2023-04-21T01:52:33.169Z,97.42
2023-04-21T01:53:33.185Z,97.63
2023-04-21T01:54:33.149Z,97.31
2023-04-21T01:55:33.141Z,97.42
2023-04-21T01:56:33.146Z,97.52
2023-04-21T01:57:33.151Z,97.73
2023-04-21T01:58:33.119Z,97.78
2023-04-21T01:59:33.112Z,97.73
2023-04-21T02:00:38.108Z,97.73
2023-04-21T02:01:33.074Z,97.94
2023-04-21T02:02:33.217Z,97.89
2023-04-21T02:03:33.184Z,97.73
2023-04-21T02:04:33.233Z,97.52
2023-04-21T02:05:33.042Z,97.73
2023-04-21T02:06:33.028Z,97.83
2023-04-21T02:07:33.012Z,97.73
2023-04-21T02:08:33.004Z,97.52
2023-04-21T02:09:32.983Z,97.42
2023-04-21T02:10:32.979Z,97.52
2023-04-21T02:11:37.993Z,97.83
2023-04-21T02:12:32.945Z,97.73
2023-04-21T02:13:32.981Z,97.67
2023-04-21T02:14:32.924Z,97.56
2023-04-21T02:15:32.973Z,97.63
2023-04-21T02:16:32.986Z,97.42
2023-04-21T02:17:32.942Z,97.77
2023-04-21T02:18:32.893Z,97.77
2023-04-21T02:19:32.866Z,97.98
2023-04-21T02:21:42.205Z,97.26
2023-04-21T02:22:42.177Z,97.05
2023-04-21T02:23:42.167Z,97.26
2023-04-21T02:24:42.148Z,97.98
2023-04-21T02:25:42.134Z,97.77
2023-04-21T02:26:42.129Z,97.88
2023-04-21T02:27:42.113Z,97.77
2023-04-21T02:28:42.158Z,97.77
2023-04-21T02:29:42.098Z,97.77
2023-04-21T02:30:42.654Z,97.77
2023-04-21T02:31:56.600Z,97.77
2023-04-21T02:32:47.221Z,97.67
2023-04-21T02:33:42.057Z,97.56
2023-04-21T02:34:42.057Z,97.67
2023-04-21T02:35:42.022Z,98.02
2023-04-21T02:36:42.027Z,97.88
2023-04-21T02:37:42.010Z,97.72
2023-04-21T02:38:42.011Z,98.02
2023-04-21T02:39:41.982Z,97.92
2023-04-21T02:40:41.977Z,97.92
2023-04-21T02:41:41.965Z,98.02
2023-04-21T02:42:41.962Z,97.92
2023-04-21T02:43:46.985Z,97.82
2023-04-21T02:44:41.944Z,97.82
2023-04-21T02:45:41.916Z,97.82
2023-04-21T02:46:41.981Z,97.82
2023-04-21T02:47:41.929Z,97.61
2023-04-21T02:48:41.929Z,97.51
2023-04-21T02:49:41.866Z,97.92
2023-04-21T02:50:41.857Z,97.61
2023-04-21T02:51:41.846Z,98.02
2023-04-21T02:52:41.833Z,97.92
2023-04-21T02:53:41.830Z,97.82
2023-04-21T02:54:46.865Z,97.72
2023-04-21T02:55:41.798Z,97.51
2023-04-21T02:56:41.805Z,98.07
2023-04-21T02:57:41.779Z,97.66
2023-04-21T02:58:41.772Z,98.28
2023-04-21T02:59:41.797Z,97.86
2023-04-21T03:00:41.792Z,97.66
2023-04-21T03:01:41.735Z,97.55
2023-04-21T03:02:41.826Z,97.76
2023-04-21T03:03:41.769Z,97.86
2023-04-21T03:04:41.755Z,98.18
2023-04-21T03:05:46.737Z,97.97
2023-04-21T03:06:41.682Z,97.76
2023-04-21T03:07:41.663Z,97.45
2023-04-21T03:08:41.665Z,97.55
2023-04-21T03:09:41.647Z,97.86
2023-04-21T03:10:41.643Z,98.28
2023-04-21T03:11:41.622Z,98.49
2023-04-21T03:12:41.616Z,98.28
2023-04-21T03:13:41.623Z,98.49
2023-04-21T03:14:41.586Z,98.49
2023-04-21T03:15:41.600Z,98.69
2023-04-21T03:16:46.614Z,98.85
2023-04-21T03:17:41.615Z,98.54
2023-04-21T03:18:41.569Z,98.38
2023-04-21T03:19:41.535Z,98.69
2023-04-21T03:20:41.519Z,98.54
2023-04-21T03:21:41.522Z,98.54
2023-04-21T03:22:41.497Z,98.54
2023-04-21T03:23:41.495Z,98.44
2023-04-21T03:24:41.484Z,98.54
2023-04-21T03:25:41.461Z,98.65
2023-04-21T03:26:41.455Z,98.44
2023-04-21T03:27:46.471Z,98.65
2023-04-21T03:28:41.450Z,98.54
2023-04-21T03:29:41.420Z,98.23
2023-04-21T03:30:41.418Z,98.44
2023-04-21T03:31:41.450Z,97.82
2023-04-21T03:32:41.427Z,98.13
2023-04-21T03:33:41.383Z,98.65
2023-04-21T03:34:41.365Z,98.44
2023-04-21T03:35:41.351Z,98.44
2023-04-21T03:36:41.349Z,98.44
2023-04-21T03:37:41.331Z,97.82
2023-04-21T03:38:46.348Z,97.61
2023-04-21T03:39:41.305Z,97.61
2023-04-21T03:40:41.300Z,97.66
2023-04-21T03:41:41.286Z,97.55
2023-04-21T03:42:41.285Z,97.61
2023-04-21T03:43:41.283Z,97.61
2023-04-21T03:44:41.252Z,98.07
2023-04-21T03:45:41.270Z,97.86
2023-04-21T03:46:41.241Z,98.07
2023-04-21T03:47:41.299Z,97.66
2023-04-21T03:48:41.230Z,97.45
2023-04-21T03:49:46.218Z,97.25
2023-04-21T03:50:41.184Z,97.25
2023-04-21T03:51:41.174Z,97.34
2023-04-21T03:52:41.165Z,97.19
2023-04-21T03:53:41.161Z,97.19
2023-04-21T03:54:41.153Z,97.29
2023-04-21T03:55:41.125Z,97.71
2023-04-21T03:56:41.127Z,97.91
2023-04-21T03:57:41.126Z,97.60
2023-04-21T03:58:41.108Z,97.91
2023-04-21T03:59:41.084Z,97.91
2023-04-21T04:00:46.107Z,98.16
2023-04-21T04:01:41.087Z,98.57
2023-04-21T04:02:41.309Z,99.30
2023-04-21T04:03:41.158Z,98.88
2023-04-21T04:04:41.213Z,98.84
2023-04-21T04:05:41.085Z,98.99
2023-04-21T04:06:41.034Z,98.99
2023-04-21T04:07:41.035Z,98.74
2023-04-21T04:08:40.990Z,99.19
2023-04-21T04:09:40.974Z,99.09
2023-04-21T04:10:40.959Z,98.88
2023-04-21T04:11:45.980Z,99.71
2023-04-21T04:12:40.942Z,99.61
2023-04-21T04:13:40.952Z,99.51
2023-04-21T04:14:40.917Z,99.82
2023-04-21T04:15:40.905Z,99.40
2023-04-21T04:16:40.890Z,99.71
2023-04-21T04:17:40.960Z,99.71
2023-04-21T04:18:40.876Z,99.71
2023-04-21T04:19:40.880Z,99.40
2023-04-21T04:20:40.849Z,99.71
2023-04-21T04:21:40.841Z,99.51
2023-04-21T04:22:45.844Z,99.44
2023-04-21T04:23:40.819Z,99.86
2023-04-21T04:24:40.799Z,99.34
2023-04-21T04:25:40.796Z,99.96
2023-04-21T04:26:40.785Z,99.96
2023-04-21T04:27:40.776Z,99.99
2023-04-21T04:28:40.766Z,99.99
2023-04-21T04:29:40.741Z,99.99
2023-04-21T04:30:40.731Z,99.99
2023-04-21T04:31:40.764Z,99.99
2023-04-21T04:32:40.791Z,99.99
2023-04-21T04:33:45.727Z,99.99
2023-04-21T04:34:40.685Z,99.99
2023-04-21T04:35:40.696Z,99.99
2023-04-21T04:36:40.664Z,99.96
2023-04-21T04:37:40.661Z,99.99
2023-04-21T04:38:40.647Z,99.99
2023-04-21T04:39:40.629Z,99.99
2023-04-21T04:40:40.619Z,99.96
2023-04-21T04:41:40.608Z,99.96
2023-04-21T04:42:40.593Z,99.99
2023-04-21T04:43:40.600Z,99.99
2023-04-21T04:44:45.595Z,99.99
2023-04-21T04:45:40.563Z,99.99
2023-04-21T04:46:40.569Z,99.99
2023-04-21T04:47:40.577Z,99.99
2023-04-21T04:48:40.549Z,99.86
2023-04-21T04:49:40.521Z,99.99
2023-04-21T04:50:40.502Z,99.99
2023-04-21T04:51:40.514Z,99.99
2023-04-21T04:52:40.483Z,99.99
2023-04-21T04:53:40.479Z,99.99
2023-04-21T04:54:40.469Z,99.99
2023-04-21T04:55:45.481Z,99.99
2023-04-21T04:56:40.452Z,99.99
2023-04-21T04:57:40.426Z,99.99
2023-04-21T04:58:40.424Z,99.99
2023-04-21T04:59:40.395Z,99.99
2023-04-21T05:00:40.390Z,99.99
2023-04-21T05:01:40.473Z,99.99
2023-04-21T05:02:40.789Z,99.99
2023-04-21T05:03:40.484Z,99.99
2023-04-21T05:04:40.421Z,99.99
2023-04-21T05:05:40.336Z,99.99
2023-04-21T05:06:45.362Z,99.99
2023-04-21T05:07:40.321Z,99.99
2023-04-21T05:08:40.299Z,99.99
2023-04-21T05:09:40.300Z,99.99
2023-04-21T05:10:40.278Z,99.99
2023-04-21T05:11:40.265Z,99.99
2023-04-21T05:12:40.260Z,99.99
2023-04-21T05:13:40.390Z,99.99
2023-04-21T05:14:40.250Z,99.99
2023-04-21T05:15:40.225Z,99.99
2023-04-21T05:16:40.245Z,99.99
2023-04-21T05:17:45.274Z,99.99
2023-04-21T05:18:40.195Z,99.99
2023-04-21T05:19:40.196Z,99.99
2023-04-21T05:20:40.167Z,99.99
2023-04-21T05:21:40.156Z,99.99
2023-04-21T05:22:40.173Z,99.99
2023-04-21T05:23:40.132Z,99.99
2023-04-21T05:24:40.135Z,99.99
2023-04-21T05:25:40.123Z,99.99
2023-04-21T05:26:40.102Z,99.99
2023-04-21T05:27:40.095Z,99.99
2023-04-21T05:28:45.098Z,99.99
2023-04-21T05:29:40.081Z,99.99
2023-04-21T05:30:40.057Z,99.99
2023-04-21T05:31:40.072Z,99.99
2023-04-21T05:32:40.065Z,99.99
2023-04-21T05:33:40.032Z,99.99
2023-04-21T05:34:40.016Z,99.99
2023-04-21T05:35:40.007Z,99.61
2023-04-21T05:36:39.985Z,99.30
2023-04-21T05:37:39.981Z,98.88
2023-04-21T05:38:39.986Z,99.30
2023-04-21T05:39:44.984Z,99.40
2023-04-21T05:40:39.952Z,98.99
2023-04-21T05:41:39.932Z,99.15
2023-04-21T05:42:39.918Z,99.05
2023-04-21T05:43:39.909Z,98.63
2023-04-21T05:44:39.906Z,98.01
2023-04-21T05:45:39.898Z,97.60
2023-04-21T05:46:39.965Z,98.01
2023-04-21T05:47:39.923Z,98.01
2023-04-21T05:48:40.024Z,98.28
2023-04-21T05:49:39.852Z,97.45
2023-04-21T05:50:44.849Z,97.29
2023-04-21T05:51:39.814Z,97.14
2023-04-21T05:52:39.806Z,97.25
2023-04-21T05:53:39.793Z,97.14
2023-04-21T05:54:39.809Z,97.14
2023-04-21T05:55:39.781Z,96.62
2023-04-21T05:56:39.767Z,96.31
2023-04-21T05:57:39.746Z,96.62
2023-04-21T05:58:39.732Z,96.62
2023-04-21T05:59:39.733Z,96.42
2023-04-21T06:00:39.710Z,96.62
2023-04-21T06:01:44.800Z,96.52
2023-04-21T06:02:39.922Z,95.90
2023-04-21T06:03:39.911Z,95.90
2023-04-21T06:04:39.932Z,95.96
2023-04-21T06:05:39.680Z,96.06
2023-04-21T06:06:39.643Z,96.17
2023-04-21T06:07:39.651Z,96.06
2023-04-21T06:08:39.621Z,95.86
2023-04-21T06:09:39.620Z,96.27
2023-04-21T06:10:39.616Z,95.86
2023-04-21T06:11:39.588Z,95.96
2023-04-21T06:12:44.596Z,95.86
2023-04-21T06:13:41.635Z,95.14
2023-04-21T06:14:39.581Z,95.86
2023-04-21T06:15:39.552Z,96.12
2023-04-21T06:16:39.751Z,95.92
2023-04-21T06:17:39.530Z,95.92
2023-04-21T06:18:39.505Z,95.61
2023-04-21T06:19:40.841Z,95.50
2023-04-21T06:20:39.482Z,95.40
2023-04-21T06:21:39.479Z,95.09
2023-04-21T06:22:39.462Z,95.40
2023-04-21T06:23:44.483Z,94.74
2023-04-21T06:24:39.454Z,94.78
2023-04-21T06:25:39.442Z,95.20
2023-04-21T06:26:39.448Z,95.25
2023-04-21T06:27:39.410Z,94.89
2023-04-21T06:28:39.419Z,95.05
2023-04-21T06:29:39.392Z,95.15
2023-04-21T06:30:39.373Z,95.77
2023-04-21T06:31:39.392Z,95.52
2023-04-21T06:32:39.353Z,95.73
2023-04-21T06:33:39.356Z,95.48
2023-04-21T06:34:44.348Z,94.28
2023-04-21T06:35:39.319Z,94.49
2023-04-21T06:36:39.323Z,94.38
2023-04-21T06:37:39.319Z,94.45
2023-04-21T06:38:39.296Z,94.34
2023-04-21T06:39:39.273Z,94.03
2023-04-21T06:40:39.257Z,93.83
2023-04-21T06:41:39.249Z,93.52
2023-04-21T06:42:39.256Z,93.16
2023-04-21T06:43:39.246Z,93.06
2023-04-21T06:44:39.213Z,92.24
2023-04-21T06:45:44.237Z,92.10
2023-04-21T06:46:39.216Z,91.53
2023-04-21T06:47:39.252Z,91.29
2023-04-21T06:48:39.185Z,90.53
2023-04-21T06:49:39.172Z,89.60
2023-04-21T06:50:39.156Z,88.12
2023-04-21T06:51:39.138Z,87.34
2023-04-21T06:52:39.127Z,87.34
2023-04-21T06:53:39.115Z,87.13
2023-04-21T06:54:39.111Z,87.24
2023-04-21T06:55:39.095Z,87.28
2023-04-21T06:56:44.121Z,87.18
2023-04-21T06:57:39.094Z,87.38
2023-04-21T06:58:39.090Z,87.13
2023-04-21T06:59:39.047Z,87.69
2023-04-21T07:00:39.070Z,88.00
2023-04-21T07:01:39.143Z,88.41
2023-04-21T07:02:39.172Z,88.20
2023-04-21T07:03:39.084Z,88.31
2023-04-21T07:04:39.043Z,88.10
2023-04-21T07:05:38.985Z,87.59
2023-04-21T07:06:38.968Z,87.69
2023-04-21T07:07:43.978Z,87.38
2023-04-21T07:08:38.967Z,86.97
2023-04-21T07:09:38.933Z,86.66
2023-04-21T07:10:38.922Z,86.77
2023-04-21T07:11:38.917Z,87.32
2023-04-21T07:12:38.903Z,87.18
2023-04-21T07:13:38.899Z,87.59
2023-04-21T07:14:38.904Z,87.94
2023-04-21T07:15:38.870Z,88.10
2023-04-21T07:16:38.942Z,88.31
2023-04-21T07:17:38.865Z,88.41
2023-04-21T07:18:43.876Z,88.56
2023-04-21T07:19:38.827Z,89.38
2023-04-21T07:20:38.816Z,90.00
2023-04-21T07:21:38.805Z,89.58
2023-04-21T07:22:38.790Z,89.79
2023-04-21T07:23:38.790Z,90.20
2023-04-21T07:24:38.765Z,90.30
2023-04-21T07:25:38.760Z,90.14
2023-04-21T07:26:38.751Z,90.39
2023-04-21T07:27:38.767Z,90.08
2023-04-21T07:28:38.723Z,90.94
2023-04-21T07:29:43.762Z,91.42
2023-04-21T07:30:38.790Z,91.11
2023-04-21T07:31:38.780Z,91.11
2023-04-21T07:32:39.069Z,90.96
2023-04-21T07:33:38.679Z,91.58
2023-04-21T07:34:38.673Z,90.51
2023-04-21T07:35:38.644Z,90.81
2023-04-21T07:36:38.729Z,90.20
2023-04-21T07:37:38.623Z,89.23
2023-04-21T07:38:38.626Z,88.82
2023-04-21T07:39:38.605Z,88.06
2023-04-21T07:40:43.608Z,87.24
2023-04-21T07:41:38.600Z,87.30
2023-04-21T07:42:38.594Z,87.30
2023-04-21T07:43:38.590Z,86.89
2023-04-21T07:44:38.563Z,86.95
2023-04-21T07:45:38.598Z,86.54
2023-04-21T07:46:38.695Z,85.68
2023-04-21T07:47:38.539Z,84.72
2023-04-21T07:48:38.495Z,84.68
2023-04-21T07:49:38.492Z,83.92
2023-04-21T07:50:38.479Z,83.17
2023-04-21T07:51:43.480Z,82.31
2023-04-21T07:52:38.451Z,81.35
2023-04-21T07:53:38.443Z,79.98
2023-04-21T07:54:38.441Z,78.96
2023-04-21T07:55:38.415Z,79.16
2023-04-21T07:56:38.413Z,79.06
2023-04-21T07:57:38.410Z,79.88
2023-04-21T07:58:38.379Z,78.96
2023-04-21T07:59:38.374Z,79.27
2023-04-21T08:00:38.363Z,79.37
2023-04-21T08:01:38.389Z,79.68
2023-04-21T08:02:43.432Z,79.43
2023-04-21T08:03:38.670Z,79.43
2023-04-21T08:04:38.551Z,78.88
2023-04-21T08:05:41.137Z,78.23
2023-04-21T08:06:38.446Z,77.18
2023-04-21T08:07:38.297Z,77.08
2023-04-21T08:08:38.294Z,76.97
2023-04-21T08:09:38.289Z,76.87
2023-04-21T08:10:38.281Z,77.62
2023-04-21T08:11:38.230Z,77.72
2023-04-21T08:12:38.239Z,78.03
2023-04-21T08:13:43.231Z,77.79
2023-04-21T08:14:38.256Z,77.38
2023-04-21T08:15:38.188Z,76.50
2023-04-21T08:16:38.249Z,74.55
2023-04-21T08:17:38.214Z,73.81
2023-04-21T08:18:38.150Z,72.89
2023-04-21T08:19:38.163Z,73.10
2023-04-21T08:20:38.162Z,72.79
2023-04-21T08:21:38.128Z,72.21
2023-04-21T08:22:38.268Z,71.87
2023-04-21T08:23:38.095Z,70.75
2023-04-21T08:24:43.123Z,70.10
2023-04-21T08:25:38.074Z,69.87
2023-04-21T08:26:38.064Z,68.44
2023-04-21T08:27:38.081Z,67.36
2023-04-21T08:28:38.039Z,66.42
2023-04-21T08:29:38.155Z,65.27
2023-04-21T08:30:38.020Z,65.24
2023-04-21T08:31:38.025Z,64.78
2023-04-21T08:32:38.086Z,63.15
2023-04-21T08:33:46.710Z,63.23
2023-04-21T08:34:39.023Z,63.46
2023-04-21T08:35:54.920Z,62.11
2023-04-21T08:36:37.946Z,61.20
2023-04-21T08:37:37.967Z,61.27
2023-04-21T08:38:37.942Z,61.07
2023-04-21T08:39:37.929Z,61.51
2023-04-21T08:40:37.919Z,62.82
2023-04-21T08:41:37.891Z,62.11
2023-04-21T08:42:37.883Z,63.06
2023-04-21T08:43:37.878Z,63.35
2023-04-21T08:44:37.863Z,62.88
2023-04-21T08:45:37.881Z,63.11
2023-04-21T08:46:42.850Z,63.52
2023-04-21T08:47:37.899Z,63.45
2023-04-21T08:48:37.810Z,64.18
2023-04-21T08:49:37.817Z,65.33
2023-04-21T08:50:37.813Z,66.86
2023-04-21T08:51:37.776Z,66.76
2023-04-21T08:52:37.766Z,67.77
2023-04-21T08:53:37.758Z,67.16
2023-04-21T08:54:37.744Z,67.80
2023-04-21T08:55:37.741Z,68.01
2023-04-21T08:56:37.731Z,67.77
2023-04-21T08:57:42.751Z,67.97
2023-04-21T08:58:37.714Z,67.16
2023-04-21T08:59:37.688Z,66.52
2023-04-21T09:00:37.687Z,66.52
2023-04-21T09:01:37.739Z,66.32
2023-04-21T09:02:37.766Z,66.86
2023-04-21T09:03:37.902Z,66.39
2023-04-21T09:04:37.881Z,67.16
2023-04-21T09:05:41.879Z,66.66
2023-04-21T09:06:38.616Z,66.76
2023-04-21T09:07:37.599Z,66.83
2023-04-21T09:08:42.603Z,66.80
2023-04-21T09:09:37.574Z,66.72
2023-04-21T09:10:37.584Z,66.42
2023-04-21T09:11:37.550Z,66.93
2023-04-21T09:12:37.549Z,66.39
2023-04-21T09:13:37.534Z,66.76
2023-04-21T09:14:37.513Z,66.35
2023-04-21T09:15:37.516Z,64.79
2023-04-21T09:16:37.604Z,64.29
2023-04-21T09:17:37.503Z,64.90
2023-04-21T09:18:37.521Z,65.81
2023-04-21T09:19:42.480Z,66.86
2023-04-21T09:20:37.455Z,66.25
2023-04-21T09:21:37.458Z,66.96
2023-04-21T09:22:37.439Z,66.96
2023-04-21T09:23:37.417Z,66.72
2023-04-21T09:24:37.395Z,66.42
2023-04-21T09:25:37.404Z,64.87
2023-04-21T09:26:37.373Z,64.46
2023-04-21T09:27:37.373Z,64.15
2023-04-21T09:28:37.364Z,63.75
2023-04-21T09:29:37.377Z,63.62
2023-04-21T09:30:42.430Z,63.45
2023-04-21T09:31:37.571Z,64.61
2023-04-21T09:32:37.336Z,62.75
2023-04-21T09:33:46.086Z,62.11
2023-04-21T09:34:37.285Z,61.30
2023-04-21T09:35:37.295Z,60.97
2023-04-21T09:36:37.263Z,60.00
2023-04-21T09:37:37.274Z,59.47
2023-04-21T09:38:37.242Z,59.06
2023-04-21T09:39:46.371Z,59.27
2023-04-21T09:40:37.228Z,59.16
2023-04-21T09:41:42.247Z,59.94
2023-04-21T09:42:40.162Z,59.14
2023-04-21T09:43:37.185Z,57.92
2023-04-21T09:44:49.428Z,58.56
2023-04-21T09:45:40.520Z,59.27
2023-04-21T09:46:37.891Z,59.27
2023-04-21T09:47:37.158Z,59.16
2023-04-21T09:48:37.134Z,59.56
2023-04-21T09:49:37.114Z,60.17
2023-04-21T09:51:52.722Z,59.56
2023-04-21T09:52:43.125Z,59.44
2023-04-21T09:53:37.081Z,59.16
2023-04-21T09:54:37.226Z,59.16
2023-04-21T09:55:37.057Z,59.70
2023-04-21T09:56:37.034Z,60.30
2023-04-21T09:57:37.025Z,60.84
2023-04-21T09:58:37.016Z,60.77
2023-04-21T09:59:37.060Z,60.74
2023-04-21T10:00:37.013Z,61.04
2023-04-21T10:01:36.991Z,60.48
2023-04-21T10:02:37.196Z,59.67
2023-04-21T10:03:42.211Z,59.16
2023-04-21T10:04:37.292Z,59.27
2023-04-21T10:05:39.375Z,59.90
2023-04-21T10:06:36.940Z,59.70
2023-04-21T10:07:36.952Z,59.49
2023-04-21T10:08:36.922Z,58.99
2023-04-21T10:09:36.925Z,60.10
2023-04-21T10:10:36.878Z,59.49
2023-04-21T10:11:36.876Z,59.59
2023-04-21T10:12:36.905Z,60.38
2023-04-21T10:13:36.847Z,59.03
2023-04-21T10:14:41.853Z,58.43
2023-04-21T10:15:36.817Z,58.23
2023-04-21T10:16:37.085Z,57.62
2023-04-21T10:17:36.837Z,58.63
2023-04-21T10:18:36.794Z,58.23
2023-04-21T10:19:36.777Z,57.39
2023-04-21T10:20:36.766Z,57.62
2023-04-21T10:21:36.799Z,59.06
2023-04-21T10:22:36.747Z,59.29
2023-04-21T10:23:36.744Z,58.89
2023-04-21T10:24:36.750Z,59.56
2023-04-21T10:25:41.740Z,59.77
2023-04-21T10:26:36.712Z,60.25
2023-04-21T10:27:36.693Z,59.64
2023-04-21T10:28:36.682Z,59.51
2023-04-21T10:29:48.500Z,58.75
2023-04-21T10:30:37.698Z,56.68
2023-04-21T10:31:36.709Z,56.65
2023-04-21T10:32:36.694Z,57.08
2023-04-21T10:33:36.614Z,57.01
2023-04-21T10:34:36.627Z,56.93
2023-04-21T10:35:36.602Z,57.67
2023-04-21T10:36:41.661Z,57.61
2023-04-21T10:37:36.588Z,56.88
2023-04-21T10:38:36.576Z,56.04
2023-04-21T10:39:36.623Z,55.51
2023-04-21T10:41:36.570Z,55.82
2023-04-21T10:42:36.555Z,55.21
2023-04-21T10:43:36.504Z,54.41
2023-04-21T10:44:36.494Z,55.41
2023-04-21T10:45:36.582Z,55.04
2023-04-21T10:46:36.806Z,56.35
2023-04-21T10:47:41.550Z,56.32
2023-04-21T10:48:36.496Z,57.54
2023-04-21T10:49:36.437Z,57.43
2023-04-21T10:50:38.998Z,57.78
2023-04-21T10:51:36.423Z,56.45
2023-04-21T10:52:36.404Z,55.62
2023-04-21T10:53:36.397Z,55.21
2023-04-21T10:54:36.448Z,54.88
2023-04-21T10:55:36.373Z,55.51
2023-04-21T10:56:38.662Z,56.57
2023-04-21T10:57:36.933Z,56.81
2023-04-21T10:58:41.355Z,58.37
2023-04-21T10:59:36.361Z,59.69
2023-04-21T11:00:36.370Z,59.56
2023-04-21T11:01:36.383Z,59.35
2023-04-21T11:02:39.653Z,59.42
2023-04-21T11:03:36.618Z,58.52
2023-04-21T11:04:36.526Z,57.71
2023-04-21T11:05:36.336Z,58.59
2023-04-21T11:06:36.278Z,57.15
2023-04-21T11:07:36.285Z,56.82
2023-04-21T11:08:37.757Z,55.29
2023-04-21T11:09:36.205Z,54.68
2023-04-21T11:10:36.192Z,55.26
2023-04-21T11:11:41.240Z,55.71
2023-04-21T11:12:36.173Z,56.68
2023-04-21T11:13:36.202Z,57.34
2023-04-21T11:14:36.759Z,58.70
2023-04-21T11:15:36.136Z,60.02
2023-04-21T11:16:36.148Z,60.42
2023-04-21T11:17:36.198Z,59.48
2023-04-21T11:18:36.115Z,59.18
2023-04-21T11:19:36.105Z,58.95
2023-04-21T11:20:36.078Z,58.45
2023-04-21T11:21:36.066Z,59.35
2023-04-21T11:22:41.089Z,59.08
2023-04-21T11:23:36.044Z,59.45
2023-04-21T11:24:36.032Z,57.08
2023-04-21T11:25:36.057Z,57.15
2023-04-21T11:26:36.020Z,56.92
2023-04-21T11:27:36.022Z,56.42
2023-04-21T11:28:35.992Z,55.08
2023-04-21T11:29:35.984Z,55.19
2023-04-21T11:30:36.025Z,55.36
2023-04-21T11:31:36.102Z,54.53
2023-04-21T11:32:38.067Z,54.23
2023-04-21T11:33:40.969Z,53.88
2023-04-21T11:34:35.940Z,53.67
2023-04-21T11:35:35.907Z,52.92
2023-04-21T11:36:35.902Z,54.46
2023-04-21T11:37:35.921Z,54.03
2023-04-21T11:38:35.877Z,54.33
2023-04-21T11:39:35.864Z,54.05
2023-04-21T11:40:35.856Z,54.43
2023-04-21T11:41:35.844Z,55.16
2023-04-21T11:42:35.862Z,54.96
2023-04-21T11:43:35.856Z,55.06
2023-04-21T11:44:40.862Z,55.36
2023-04-21T11:45:35.830Z,55.13
2023-04-21T11:46:35.845Z,55.03
2023-04-21T11:47:35.840Z,54.93
2023-04-21T11:48:35.766Z,54.50
2023-04-21T11:49:35.792Z,55.46
2023-04-21T11:50:35.750Z,55.46
2023-04-21T11:51:35.734Z,55.89
2023-04-21T11:52:35.737Z,56.09
2023-04-21T11:53:35.723Z,55.23
2023-04-21T11:54:35.699Z,54.20
2023-04-21T11:55:40.742Z,53.25
2023-04-21T11:56:35.720Z,53.42
2023-04-21T11:57:35.660Z,51.26
2023-04-21T11:58:35.667Z,51.26
2023-04-21T11:59:35.665Z,50.63
2023-04-21T12:00:35.645Z,49.81
2023-04-21T12:01:35.669Z,48.96
2023-04-21T12:02:35.811Z,48.10
2023-04-21T12:03:35.887Z,46.55
2023-04-21T12:04:35.663Z,46.97
2023-04-21T12:05:35.645Z,47.17
2023-04-21T12:06:40.591Z,45.33
2023-04-21T12:07:35.618Z,46.17
2023-04-21T12:08:35.569Z,47.39
2023-04-21T12:09:35.526Z,46.72
2023-04-21T12:10:35.519Z,46.89
2023-04-21T12:11:35.505Z,46.77
2023-04-21T12:12:35.983Z,46.25
2023-04-21T12:13:35.502Z,45.40
2023-04-21T12:14:35.473Z,44.71
2023-04-21T12:15:35.497Z,45.43
2023-04-21T12:16:35.539Z,45.85
2023-04-21T12:17:35.471Z,46.15
2023-04-21T12:18:36.777Z,45.63
2023-04-21T12:19:40.495Z,46.30
2023-04-21T12:20:35.642Z,46.27
2023-04-21T12:21:35.427Z,47.00
2023-04-21T12:22:35.408Z,44.87
2023-04-21T12:23:35.386Z,43.75
2023-04-21T12:24:36.716Z,43.45
2023-04-21T12:25:35.378Z,43.49
2023-04-21T12:26:35.338Z,42.15
2023-04-21T12:27:35.336Z,40.72
2023-04-21T12:28:35.329Z,40.90
2023-04-21T12:29:35.316Z,41.24
2023-04-21T12:30:38.672Z,41.22
2023-04-21T12:31:35.332Z,42.45
2023-04-21T12:32:40.418Z,44.75
2023-04-21T12:33:35.304Z,45.61
2023-04-21T12:34:35.277Z,44.59
2023-04-21T12:35:35.239Z,44.49
2023-04-21T12:36:36.394Z,44.73
2023-04-21T12:37:35.247Z,46.07
2023-04-21T12:38:35.208Z,46.45
2023-04-21T12:39:35.198Z,47.09
2023-04-21T12:40:35.186Z,46.57
2023-04-21T12:41:35.176Z,46.55
2023-04-21T12:42:37.408Z,46.37
2023-04-21T12:43:35.172Z,46.77
2023-04-21T12:44:35.143Z,46.07
2023-04-21T12:45:40.176Z,47.17
2023-04-21T12:46:35.155Z,47.84
2023-04-21T12:47:35.364Z,49.08
2023-04-21T12:48:35.107Z,49.93
2023-04-21T12:49:35.114Z,50.76
2023-04-21T12:50:35.084Z,51.34
2023-04-21T12:51:35.086Z,51.54
2023-04-21T12:52:35.067Z,51.46
2023-04-21T12:53:35.039Z,51.26
2023-04-21T12:54:35.033Z,51.67
2023-04-21T12:55:35.039Z,52.47